Time;durP1;ratioP1;P1;durP2;ratioP2;P2;SDS_P1;SDS_P2;PMS_P1;PMS_P2;Temp;Humidity;BMP_temperature;BMP_pressure;BME280_temperature;BME280_humidity;BME280_pressure;Samples;Min_cycle;Max_cycle;Signal;HPM_P1;HPM_P2
2022/09/08 00:00:13;;;;;;;11.80;3.22;;;;;;;26.41;43.50;100491.47;5093126;28;20471;-49
2022/09/08 00:02:41;;;;;;;9.15;2.67;;;;;;;26.38;43.29;100479.22;5092434;28;20036;-49
2022/09/08 00:05:11;;;;;;;12.50;3.10;;;;;;;26.39;43.28;100485.34;5092442;28;20035;-52
2022/09/08 00:07:39;;;;;;;9.65;3.03;;;;;;;26.43;43.44;100489.72;5075020;28;20032;-52
2022/09/08 00:10:08;;;;;;;9.95;2.88;;;;;;;26.40;43.44;100487.09;5092740;28;20367;-48
2022/09/08 00:12:37;;;;;;;9.20;3.00;;;;;;;26.43;43.16;100489.72;5092950;28;20039;-48
2022/09/08 00:15:06;;;;;;;10.27;3.17;;;;;;;26.44;43.43;100487.94;5092888;28;20073;-47
2022/09/08 00:17:35;;;;;;;10.73;3.33;;;;;;;26.37;43.20;100468.69;5092580;28;20123;-49
2022/09/08 00:20:03;;;;;;;9.38;3.13;;;;;;;26.51;43.17;100485.28;5092459;28;20614;-48
2022/09/08 00:22:32;;;;;;;8.70;2.78;;;;;;;26.52;42.97;100504.56;5092770;28;20070;-49
2022/09/08 00:25:01;;;;;;;12.23;3.45;;;;;;;26.49;43.04;100500.19;5091962;28;20439;-52
2022/09/08 00:27:28;;;;;;;11.85;3.67;;;;;;;26.56;42.96;100501.03;5092450;28;20028;-50
2022/09/08 00:29:56;;;;;;;12.73;3.03;;;;;;;26.48;42.90;100489.69;5092366;28;20038;-50
2022/09/08 00:32:25;;;;;;;9.80;2.95;;;;;;;26.46;43.12;100488.81;5092477;28;20107;-52
2022/09/08 00:34:53;;;;;;;15.35;3.55;;;;;;;26.36;43.56;100486.25;5092055;28;20051;-49
2022/09/08 00:37:22;;;;;;;8.10;2.83;;;;;;;26.38;43.19;100484.47;5092496;28;20024;-48
2022/09/08 00:39:51;;;;;;;9.60;2.58;;;;;;;26.42;43.27;100474.81;5093384;28;20039;-51
2022/09/08 00:42:20;;;;;;;10.15;2.78;;;;;;;26.40;43.18;100476.56;5096261;28;20424;-50
2022/09/08 00:44:49;;;;;;;11.25;3.20;;;;;;;26.38;43.43;100470.44;5095913;28;20024;-48
2022/09/08 00:47:38;;;;;;;9.13;2.92;;;;;;;26.43;43.26;100473.03;5096392;28;20031;-51
2022/09/08 00:50:18;;;;;;;11.63;2.70;;;;;;;26.40;43.16;100460.78;5096131;28;20028;-49
2022/09/08 00:52:50;;;;;;;11.25;3.20;;;;;;;26.42;43.11;100468.66;5096025;28;20488;-49
2022/09/08 00:55:19;;;;;;;11.73;3.08;;;;;;;26.39;43.21;100483.56;5078199;28;20028;-51
2022/09/08 00:57:48;;;;;;;8.73;3.05;;;;;;;26.49;43.19;100479.13;5095710;28;20024;-48
2022/09/08 01:00:18;;;;;;;14.23;3.35;;;;;;;26.33;43.50;100469.56;5096042;28;20098;-49
2022/09/08 01:02:48;;;;;;;9.77;3.17;;;;;;;26.36;43.47;100475.72;5095650;28;20024;-51
2022/09/08 01:05:21;;;;;;;9.80;3.20;;;;;;;26.39;43.50;100477.44;5095414;28;20474;-48
2022/09/08 01:14:06;;;;;;;9.77;3.17;;;;;;;26.40;43.30;100473.94;5074415;28;20118;-49
2022/09/08 01:16:42;;;;;;;10.63;3.35;;;;;;;26.45;42.80;100466.91;5095583;28;20020;-49
2022/09/08 01:19:18;;;;;;;10.45;3.38;;;;;;;26.45;43.04;100479.16;5077003;28;20028;-49
2022/09/08 01:22:03;;;;;;;9.93;3.17;;;;;;;26.40;43.12;100481.81;5077593;28;20091;-51
2022/09/08 01:24:50;;;;;;;10.60;3.13;;;;;;;26.31;43.31;100485.38;5077129;28;20169;-48
2022/09/08 01:27:22;;;;;;;11.80;3.40;;;;;;;26.33;43.45;100486.25;5069860;28;20107;-50
2022/09/08 01:29:54;;;;;;;12.27;3.53;;;;;;;26.36;43.11;100480.09;5095474;28;20016;-48
2022/09/08 01:32:24;;;;;;;12.35;4.20;;;;;;;26.37;43.25;100485.34;5077057;28;20035;-50
2022/09/08 01:34:53;;;;;;;8.65;3.00;;;;;;;26.35;43.05;100473.09;5077225;28;20028;-51
2022/09/08 01:37:21;;;;;;;8.35;3.17;;;;;;;26.39;43.18;100482.72;5077062;28;20020;-52
2022/09/08 01:39:50;;;;;;;11.95;2.85;;;;;;;26.27;43.49;100478.38;5095278;28;20467;-48
2022/09/08 01:42:18;;;;;;;10.25;3.38;;;;;;;26.30;43.53;100478.38;5094891;28;20028;-48
2022/09/08 01:44:47;;;;;;;10.27;3.30;;;;;;;26.28;43.42;100489.78;5094720;28;20039;-47
2022/09/08 01:47:15;;;;;;;12.35;3.58;;;;;;;26.31;43.49;100493.25;5094526;28;20028;-48
2022/09/08 01:49:44;;;;;;;8.95;3.13;;;;;;;26.36;43.08;100487.97;5094619;28;20031;-47
2022/09/08 01:52:12;;;;;;;13.80;3.75;;;;;;;26.29;43.36;100484.50;5094717;28;20043;-47
2022/09/08 01:54:41;;;;;;;9.80;3.33;;;;;;;26.32;43.36;100494.13;5077168;28;20028;-49
2022/09/08 01:57:10;;;;;;;9.68;2.90;;;;;;;26.29;43.27;100496.78;5095166;28;20103;-52
2022/09/08 01:59:38;;;;;;;8.48;3.00;;;;;;;26.28;43.43;100495.91;5094801;28;20055;-49
2022/09/08 02:02:07;;;;;;;11.52;3.38;;;;;;;26.31;43.23;100501.16;5094531;28;20028;-52
2022/09/08 02:04:35;;;;;;;9.25;2.90;;;;;;;26.21;43.40;100494.19;5094354;28;20129;-50
2022/09/08 02:07:04;;;;;;;9.88;3.22;;;;;;;26.23;43.50;100508.19;5076338;28;20054;-48
2022/09/08 02:09:32;;;;;;;9.52;3.33;;;;;;;26.31;43.29;100502.94;5094558;28;20398;-50
2022/09/08 02:12:01;;;;;;;10.57;2.90;;;;;;;26.32;43.11;100502.91;5094814;28;20039;-50
2022/09/08 02:14:29;;;;;;;10.13;2.97;;;;;;;26.35;43.06;100507.25;5094254;28;20103;-48
2022/09/08 02:16:58;;;;;;;14.05;3.50;;;;;;;26.41;43.08;100522.13;5094523;28;20023;-52
2022/09/08 02:19:26;;;;;;;14.05;3.38;;;;;;;26.35;43.25;100513.41;5076784;28;20435;-48
2022/09/08 02:21:55;;;;;;;9.40;3.08;;;;;;;26.27;43.12;100504.66;5094564;28;20016;-48
2022/09/08 02:24:23;;;;;;;10.55;3.08;;;;;;;26.28;43.19;100506.41;5094139;28;20139;-51
2022/09/08 02:26:52;;;;;;;13.07;3.88;;;;;;;26.25;43.15;100522.19;5094286;28;20024;-48
2022/09/08 02:29:21;;;;;;;8.13;2.42;;;;;;;26.24;43.31;100518.72;5094222;28;20471;-50
2022/09/08 02:31:49;;;;;;;9.70;2.90;;;;;;;26.26;43.08;100517.84;5093860;28;20454;-49
2022/09/08 02:34:18;;;;;;;11.65;3.28;;;;;;;26.21;43.47;100516.09;5093712;28;20030;-52
2022/09/08 02:36:46;;;;;;;9.25;2.90;;;;;;;26.22;43.35;100516.97;5094026;28;20481;-48
2022/09/08 02:39:20;;;;;;;11.10;3.47;;;;;;;26.21;43.42;100512.59;5093436;28;20032;-52
2022/09/08 02:41:49;;;;;;;7.60;3.10;;;;;;;26.16;43.65;100512.59;5093818;28;20035;-48
2022/09/08 02:44:17;;;;;;;11.82;3.28;;;;;;;26.10;43.70;100502.09;5093893;28;20027;-54
2022/09/08 02:46:46;;;;;;;13.15;3.17;;;;;;;26.19;43.49;100509.97;5076045;28;20039;-50
2022/09/08 02:49:15;;;;;;;10.30;3.30;;;;;;;26.20;43.27;100509.06;5094040;28;20056;-49
2022/09/08 02:51:43;;;;;;;10.25;2.65;;;;;;;26.15;43.43;100502.09;5093741;28;20089;-49
2022/09/08 02:54:12;;;;;;;10.85;3.55;;;;;;;26.13;43.66;100511.72;5093384;28;20050;-48
2022/09/08 02:56:40;;;;;;;11.32;3.70;;;;;;;26.21;43.41;100509.97;5093431;28;20031;-48
2022/09/08 02:59:09;;;;;;;9.20;2.88;;;;;;;26.26;43.28;100507.31;5093913;28;20031;-50
2022/09/08 03:01:38;;;;;;;8.27;2.97;;;;;;;26.23;43.14;100506.44;5075519;28;20024;-52
2022/09/08 03:04:06;;;;;;;8.82;2.85;;;;;;;26.26;43.32;100512.56;5092855;28;20028;-51
2022/09/08 03:06:34;;;;;;;11.68;3.28;;;;;;;26.21;43.15;100515.22;5093565;28;20111;-49
2022/09/08 03:09:02;;;;;;;7.35;2.60;;;;;;;26.18;43.21;100513.47;5093323;28;20104;-49
2022/09/08 03:11:31;;;;;;;12.20;3.38;;;;;;;26.09;43.27;100500.34;5093226;28;20399;-50
2022/09/08 03:14:00;;;;;;;15.00;4.25;;;;;;;26.04;43.43;100505.63;5093540;28;20030;-50
2022/09/08 03:16:29;;;;;;;11.00;3.17;;;;;;;26.16;43.16;100507.34;5075823;28;20035;-48
2022/09/08 03:18:57;;;;;;;11.43;3.08;;;;;;;26.19;43.20;100514.34;5093616;28;20518;-52
2022/09/08 03:21:26;;;;;;;9.98;2.92;;;;;;;26.05;43.57;100507.38;5093360;28;20058;-49
2022/09/08 03:23:55;;;;;;;10.07;2.63;;;;;;;26.14;43.46;100508.22;5093158;28;20044;-49
2022/09/08 03:26:24;;;;;;;10.98;3.20;;;;;;;26.18;43.18;100515.22;5093086;28;20040;-49
2022/09/08 03:28:52;;;;;;;13.45;3.50;;;;;;;26.18;43.30;100508.22;5093159;28;20032;-47
2022/09/08 03:31:22;;;;;;;10.05;3.38;;;;;;;26.13;43.32;100515.25;5093185;28;20490;-48
2022/09/08 03:33:50;;;;;;;11.63;3.50;;;;;;;26.06;43.49;100489.81;5093161;28;20038;-48
2022/09/08 03:36:20;;;;;;;7.07;3.10;;;;;;;26.09;43.50;100502.97;5092963;28;20485;-48
2022/09/08 03:38:49;;;;;;;11.57;3.67;;;;;;;26.07;43.51;100504.72;5093107;28;20047;-48
2022/09/08 03:41:17;;;;;;;9.85;3.15;;;;;;;26.08;43.42;100507.31;5093362;28;20024;-47
2022/09/08 03:43:49;;;;;;;11.10;3.65;;;;;;;26.14;43.45;100508.22;5092828;28;20036;-47
2022/09/08 03:46:18;;;;;;;8.63;2.70;;;;;;;26.11;43.51;100506.50;5093006;28;20111;-48
2022/09/08 03:48:48;;;;;;;13.88;4.03;;;;;;;26.07;43.68;100505.56;5092710;28;20028;-48
2022/09/08 03:51:24;;;;;;;7.70;2.75;;;;;;;26.03;43.47;100508.22;5092962;28;20028;-47
2022/09/08 03:54:46;;;;;;;9.25;3.20;;;;;;;26.08;43.40;100507.31;5093094;28;20085;-47
2022/09/08 03:56:49;;;;;;;10.88;2.63;;;;;;;26.05;43.51;100506.47;5093002;28;20020;-48
2022/09/08 03:59:17;;;;;;;11.63;3.05;;;;;;;26.08;43.47;100516.97;5093440;28;20069;-47
2022/09/08 04:01:46;;;;;;;12.55;3.25;;;;;;;26.11;43.31;100509.13;5092938;28;20032;-49
2022/09/08 04:04:14;;;;;;;14.25;4.13;;;;;;;26.13;43.30;100512.63;5092534;28;20032;-53
2022/09/08 04:06:43;;;;;;;12.15;2.92;;;;;;;26.11;43.34;100518.72;5092681;28;20111;-51
2022/09/08 04:09:15;;;;;;;10.55;3.58;;;;;;;26.09;43.17;100505.59;5092541;28;20029;-51
2022/09/08 04:11:43;;;;;;;12.18;3.75;;;;;;;26.13;43.31;100511.72;5092657;28;20032;-52
2022/09/08 04:14:12;;;;;;;9.95;2.70;;;;;;;26.06;43.41;100519.59;5094506;28;20427;-51
2022/09/08 04:16:41;;;;;;;11.18;3.45;;;;;;;26.07;43.20;100517.84;5097054;28;20044;-51
2022/09/08 04:19:11;;;;;;;10.50;2.92;;;;;;;26.07;43.21;100516.09;5096231;28;20024;-51
2022/09/08 04:21:40;;;;;;;15.50;3.42;;;;;;;26.02;43.35;100511.72;5096655;28;20628;-52
2022/09/08 04:24:08;;;;;;;12.05;3.40;;;;;;;25.85;43.56;100486.38;5096126;28;20516;-54
2022/09/08 04:26:37;;;;;;;12.75;3.25;;;;;;;25.91;43.07;100486.38;5096449;28;20028;-52
2022/09/08 04:29:05;;;;;;;10.35;3.70;;;;;;;26.00;43.61;100497.72;5096536;28;20020;-50
2022/09/08 04:31:35;;;;;;;10.73;3.30;;;;;;;26.03;43.33;100501.22;5077841;28;20410;-49
2022/09/08 04:34:05;;;;;;;12.43;3.70;;;;;;;26.02;43.34;100504.75;5096762;28;20028;-50
2022/09/08 04:36:34;;;;;;;10.25;2.78;;;;;;;26.02;43.18;100506.47;5078723;28;20028;-52
2022/09/08 04:39:03;;;;;;;12.88;3.47;;;;;;;26.08;43.08;100502.06;5096534;28;20032;-53
2022/09/08 04:41:32;;;;;;;13.10;3.55;;;;;;;26.06;43.37;100495.94;5096626;28;20028;-50
2022/09/08 04:44:01;;;;;;;9.15;3.28;;;;;;;26.08;43.00;100498.59;5096313;28;20028;-51
2022/09/08 04:46:30;;;;;;;11.05;3.33;;;;;;;25.94;43.29;100489.00;5096129;28;20027;-50
2022/09/08 04:48:59;;;;;;;9.25;2.53;;;;;;;25.93;43.19;100495.13;5078237;28;20032;-53
2022/09/08 04:51:29;;;;;;;11.05;3.13;;;;;;;26.04;42.90;100495.09;5095653;28;20391;-48
2022/09/08 04:53:59;;;;;;;9.23;3.22;;;;;;;26.03;43.10;100506.50;5077858;28;20057;-48
2022/09/08 04:56:28;;;;;;;10.25;3.15;;;;;;;26.02;43.42;100509.09;5095803;28;20108;-47
2022/09/08 04:58:58;;;;;;;11.10;2.50;;;;;;;26.00;43.14;100514.38;5095830;28;20035;-48
2022/09/08 05:01:30;;;;;;;8.50;2.97;;;;;;;26.01;43.34;100509.97;5077739;28;20020;-48
2022/09/08 05:04:01;;;;;;;11.82;3.22;;;;;;;25.97;43.41;100517.00;5095448;28;20110;-50
2022/09/08 05:06:31;;;;;;;12.55;3.00;;;;;;;26.02;43.13;100517.00;5095773;28;20077;-48
2022/09/08 05:09:01;;;;;;;11.82;3.47;;;;;;;25.94;43.33;100512.66;5077865;28;20035;-51
2022/09/08 05:11:31;;;;;;;11.88;3.65;;;;;;;26.00;43.29;100517.00;5095502;28;20028;-50
2022/09/08 05:14:00;;;;;;;11.73;3.15;;;;;;;25.98;43.41;100516.13;5095688;28;20103;-50
2022/09/08 05:16:29;;;;;;;12.13;2.88;;;;;;;25.99;43.45;100514.34;5095424;28;20051;-49
2022/09/08 05:19:00;;;;;;;12.63;3.17;;;;;;;25.98;43.21;100528.41;5095199;28;20492;-51
2022/09/08 05:21:29;;;;;;;11.20;3.20;;;;;;;25.97;43.48;100521.41;5077209;28;20036;-48
2022/09/08 05:24:00;;;;;;;11.77;3.35;;;;;;;26.02;43.09;100520.50;5076838;28;20119;-47
2022/09/08 05:26:29;;;;;;;13.85;3.63;;;;;;;25.96;43.10;100517.88;5094349;28;20160;-49
2022/09/08 05:28:58;;;;;;;11.73;3.03;;;;;;;25.88;43.45;100520.53;5095473;28;20032;-49
2022/09/08 05:31:28;;;;;;;9.73;3.17;;;;;;;25.79;43.69;100526.69;5095355;28;20032;-52
2022/09/08 05:33:58;;;;;;;14.45;3.53;;;;;;;25.87;43.54;100520.53;5095323;28;20081;-48
2022/09/08 05:36:30;;;;;;;9.65;3.55;;;;;;;25.89;43.33;100518.78;5095027;28;20066;-47
2022/09/08 05:38:59;;;;;;;9.77;2.90;;;;;;;25.86;43.46;100518.78;5094948;28;20056;-48
2022/09/08 05:41:28;;;;;;;9.82;3.28;;;;;;;25.88;43.66;100515.28;5094970;28;20548;-51
2022/09/08 05:43:57;;;;;;;9.65;2.92;;;;;;;25.91;43.53;100525.78;5095066;28;20035;-51
2022/09/08 05:46:27;;;;;;;10.32;3.75;;;;;;;25.85;43.55;100520.53;5094938;28;20024;-51
2022/09/08 05:48:57;;;;;;;12.45;3.80;;;;;;;25.85;43.41;100517.91;5095116;28;20021;-48
2022/09/08 05:51:26;;;;;;;10.65;3.30;;;;;;;25.94;43.31;100523.16;5094895;28;20024;-49
2022/09/08 05:53:54;;;;;;;12.48;3.92;;;;;;;25.99;43.30;100524.88;5094905;28;20032;-48
2022/09/08 05:56:23;;;;;;;13.70;3.40;;;;;;;25.84;43.78;100537.16;5095012;28;20035;-48
2022/09/08 05:58:54;;;;;;;9.45;2.92;;;;;;;25.86;43.36;100524.91;5094112;28;20024;-47
2022/09/08 06:01:23;;;;;;;9.32;2.88;;;;;;;25.84;43.65;100516.16;5094569;28;20035;-48
2022/09/08 06:03:53;;;;;;;11.98;3.97;;;;;;;25.88;43.66;100528.41;5094647;28;20031;-49
2022/09/08 06:06:22;;;;;;;10.75;3.35;;;;;;;25.92;43.34;100539.78;5095073;28;20085;-51
2022/09/08 06:08:52;;;;;;;12.93;3.80;;;;;;;25.86;43.65;100537.19;5076672;28;20034;-48
2022/09/08 06:11:20;;;;;;;13.80;3.75;;;;;;;25.85;43.65;100541.56;5094962;28;20051;-48
2022/09/08 06:13:49;;;;;;;9.98;3.60;;;;;;;25.97;43.53;100545.06;5094387;28;20028;-48
2022/09/08 06:16:19;;;;;;;10.02;3.17;;;;;;;25.92;43.68;100532.78;5076650;28;20028;-49
2022/09/08 06:18:49;;;;;;;13.60;3.67;;;;;;;25.85;43.73;100544.19;5076381;28;20428;-50
2022/09/08 06:21:22;;;;;;;12.18;3.42;;;;;;;25.90;43.86;100554.69;5094157;28;20024;-52
2022/09/08 06:23:53;;;;;;;13.85;3.50;;;;;;;25.88;43.82;100552.06;5076029;28;20463;-50
2022/09/08 06:26:26;;;;;;;12.18;4.00;;;;;;;25.90;43.78;100554.69;5093696;28;20108;-50
2022/09/08 06:28:57;;;;;;;12.57;3.13;;;;;;;25.98;43.60;100557.31;5076697;28;20047;-49
2022/09/08 06:31:33;;;;;;;12.27;3.08;;;;;;;25.93;43.88;100555.56;5094060;28;20077;-48
2022/09/08 06:34:07;;;;;;;11.93;3.70;;;;;;;25.97;43.57;100558.19;5076130;28;20464;-49
2022/09/08 06:37:05;;;;;;;10.87;3.33;;;;;;;25.94;43.79;100570.47;5076314;28;20047;-49
2022/09/08 06:39:38;;;;;;;11.57;3.83;;;;;;;25.92;43.58;100553.81;5076211;28;20255;-51
2022/09/08 06:42:13;;;;;;;11.30;3.17;;;;;;;25.92;43.79;100551.19;5076077;28;20063;-48
2022/09/08 06:44:43;;;;;;;12.55;3.42;;;;;;;25.93;43.65;100573.06;5076138;28;20024;-50
2022/09/08 06:47:16;;;;;;;15.85;3.80;;;;;;;25.85;43.87;100565.19;5076023;28;20106;-49
2022/09/08 06:49:44;;;;;;;12.35;3.65;;;;;;;25.93;44.02;100565.19;5075905;28;20435;-52
2022/09/08 06:52:21;;;;;;;10.75;3.60;;;;;;;25.86;43.87;100577.47;5093642;28;20024;-51
2022/09/08 06:54:50;;;;;;;12.25;3.70;;;;;;;25.88;44.09;100572.22;5075941;28;20035;-52
2022/09/08 06:57:35;;;;;;;15.82;4.38;;;;;;;25.94;43.96;100574.81;5075733;28;20073;-52
2022/09/08 07:00:27;;;;;;;13.60;3.50;;;;;;;25.92;44.05;100581.84;5093955;28;20024;-48
2022/09/08 07:03:28;;;;;;;13.07;3.85;;;;;;;25.96;43.92;100582.72;5075654;28;20081;-47
2022/09/08 07:06:08;;;;;;;13.30;3.78;;;;;;;25.99;43.96;100585.31;5070568;28;20078;-51
2022/09/08 07:08:37;;;;;;;13.57;3.60;;;;;;;26.01;43.90;100580.94;5093780;28;20078;-52
2022/09/08 07:11:31;;;;;;;12.07;4.10;;;;;;;26.04;44.02;100586.19;5093282;28;20390;-48
2022/09/08 07:14:03;;;;;;;14.20;4.25;;;;;;;26.06;43.98;100582.69;5093536;28;20118;-48
2022/09/08 07:16:40;;;;;;;12.23;3.53;;;;;;;26.07;43.67;100581.81;5093304;28;20028;-51
2022/09/08 07:19:26;;;;;;;12.95;3.38;;;;;;;26.01;43.86;100555.56;5076019;28;20123;-50
2022/09/08 07:22:03;;;;;;;13.02;4.07;;;;;;;26.13;43.64;100590.59;5075323;28;20514;-51
2022/09/08 07:24:38;;;;;;;12.45;3.92;;;;;;;26.15;43.77;100579.19;5093735;28;20051;-55
2022/09/08 07:27:06;;;;;;;;;;;;;;;26.14;43.71;100582.72;5085192;28;20036;-48
2022/09/08 07:29:39;;;;;;;15.35;4.05;;;;;;;26.15;43.98;100576.56;5101382;28;19918;-51
2022/09/08 07:32:16;;;;;;;16.30;4.32;;;;;;;26.13;43.95;100588.88;5096484;28;20084;-48
2022/09/08 07:35:05;;;;;;;15.77;4.18;;;;;;;26.19;43.93;100585.34;5099527;28;20031;-50
2022/09/08 07:37:46;;;;;;;12.07;3.75;;;;;;;26.29;43.94;100589.69;5104304;28;20608;-48
2022/09/08 07:40:19;;;;;;;16.27;4.20;;;;;;;26.28;43.68;100600.22;5079499;28;20043;-51
2022/09/08 07:42:49;;;;;;;13.23;3.90;;;;;;;26.17;43.69;100574.81;5094267;28;20032;-49
2022/09/08 07:45:17;;;;;;;13.98;4.05;;;;;;;26.30;43.67;100590.56;5075893;28;20478;-50
2022/09/08 07:48:11;;;;;;;14.68;3.92;;;;;;;26.35;43.88;100601.94;5104879;28;20024;-52
2022/09/08 07:51:03;;;;;;;15.38;3.78;;;;;;;26.40;43.81;100605.44;5090143;28;20028;-50
2022/09/08 07:54:08;;;;;;;13.38;3.85;;;;;;;26.30;43.80;100587.94;5104618;28;20363;-51
2022/09/08 07:56:45;;;;;;;;;;;;;;;26.45;43.69;100601.06;5096248;28;20098;-48
2022/09/08 07:59:20;;;;;;;14.57;4.45;;;;;;;26.47;43.74;100595.78;5079623;28;20039;-49
2022/09/08 08:02:01;;;;;;;12.30;3.65;;;;;;;26.47;43.62;100604.56;5098179;28;20379;-47
2022/09/08 08:04:53;;;;;;;14.07;4.03;;;;;;;26.45;43.89;100613.31;5096150;28;20085;-47
2022/09/08 08:07:26;;;;;;;12.32;3.38;;;;;;;26.48;43.67;100606.28;5075422;28;20047;-51
2022/09/08 08:10:01;;;;;;;15.43;3.92;;;;;;;26.49;43.29;100608.03;5079638;28;20028;-47
2022/09/08 08:13:06;;;;;;;11.07;3.38;;;;;;;26.51;43.56;100614.16;5098611;28;20023;-54
2022/09/08 08:15:34;;;;;;;14.23;3.63;;;;;;;26.50;43.63;100624.69;5088475;28;20085;-48
2022/09/08 08:18:16;;;;;;;15.38;4.15;;;;;;;26.46;43.90;100618.59;5106366;28;20035;-48
2022/09/08 08:20:53;;;;;;;10.20;2.88;;;;;;;26.45;43.75;100622.09;5107032;28;20031;-49
2022/09/08 08:23:25;;;;;;;10.43;3.38;;;;;;;26.48;43.77;100621.19;5105466;28;20023;-49
2022/09/08 08:26:31;;;;;;;13.80;3.53;;;;;;;26.46;43.84;100615.94;5083375;28;20131;-48
2022/09/08 08:29:37;;;;;;;14.20;3.90;;;;;;;26.59;43.59;100618.53;5075143;28;20056;-52
2022/09/08 08:32:11;;;;;;;12.07;4.00;;;;;;;26.64;43.47;100619.41;5053476;28;20399;-50
2022/09/08 08:34:46;;;;;;;17.63;3.53;;;;;;;26.51;43.54;100587.84;5068366;28;20375;-53
2022/09/08 08:37:18;;;;;;;14.30;4.07;;;;;;;26.63;43.44;100612.38;5067189;28;20028;-53
2022/09/08 08:39:48;;;;;;;12.18;3.00;;;;;;;26.70;43.75;100616.72;5067119;28;20024;-50
2022/09/08 08:42:38;;;;;;;10.30;3.60;;;;;;;26.68;43.65;100621.13;5061873;28;20044;-48
2022/09/08 08:45:26;;;;;;;14.13;4.35;;;;;;;26.71;43.41;100636.91;5071940;28;20039;-48
2022/09/08 08:48:32;;;;;;;10.48;3.42;;;;;;;26.64;43.71;100645.72;5076916;28;20503;-48
2022/09/08 08:51:11;;;;;;;10.63;3.25;;;;;;;26.64;43.79;100649.19;5066607;28;20033;-49
2022/09/08 08:53:49;;;;;;;9.50;3.20;;;;;;;26.63;43.76;100649.22;5080687;28;20028;-48
2022/09/08 08:56:24;;;;;;;8.93;2.85;;;;;;;26.63;43.75;100651.84;5087208;28;20036;-51
2022/09/08 08:59:10;;;;;;;;;;;;;;;26.66;43.49;100659.72;5077889;28;20031;-52
2022/09/08 09:01:57;;;;;;;9.68;2.45;;;;;;;26.65;43.29;100655.31;5065502;28;20341;-49
2022/09/08 09:04:53;;;;;;;7.82;1.90;;;;;;;26.62;43.49;100658.84;5084961;28;20052;-51
2022/09/08 09:07:34;;;;;;;6.22;2.13;;;;;;;26.64;43.34;100650.97;5065271;28;20036;-47
2022/09/08 09:10:06;;;;;;;5.38;1.80;;;;;;;26.63;43.41;100660.59;5075425;28;20036;-48
2022/09/08 09:13:12;;;;;;;7.50;2.20;;;;;;;26.62;43.46;100656.22;5075309;28;20030;-50
2022/09/08 09:15:46;;;;;;;7.53;2.30;;;;;;;26.57;42.78;100650.09;5072836;28;20048;-48
2022/09/08 09:18:41;;;;;;;8.70;2.03;;;;;;;26.63;43.31;100657.97;5087762;28;20029;-49
2022/09/08 09:21:34;;;;;;;7.72;2.30;;;;;;;26.61;43.27;100666.75;5079319;28;20040;-48
2022/09/08 09:24:22;;;;;;;7.03;2.00;;;;;;;26.63;43.31;100665.88;5075147;28;20115;-51
2022/09/08 09:26:53;;;;;;;7.20;2.17;;;;;;;26.63;43.45;100667.63;5097767;28;20411;-52
2022/09/08 09:29:23;;;;;;;5.38;2.25;;;;;;;26.61;43.35;100677.28;5108626;28;20024;-52
2022/09/08 09:32:20;;;;;;;8.77;2.33;;;;;;;26.58;43.48;100674.66;5096219;28;20024;-52
2022/09/08 09:34:59;;;;;;;6.72;1.58;;;;;;;26.66;43.29;100670.22;5090769;28;20082;-51
2022/09/08 09:37:38;;;;;;;7.85;2.30;;;;;;;26.67;43.35;100674.63;5095605;28;20052;-51
2022/09/08 09:40:45;;;;;;;7.13;2.08;;;;;;;26.62;43.42;100679.03;5101975;28;20036;-51
2022/09/08 09:43:37;;;;;;;8.73;2.00;;;;;;;26.67;43.29;100680.78;5102351;28;20024;-50
2022/09/08 09:46:12;;;;;;;7.57;2.10;;;;;;;26.72;43.31;100686.00;5081365;28;20091;-52
2022/09/08 09:48:53;;;;;;;7.75;1.85;;;;;;;26.72;43.40;100693.91;5100170;28;20027;-52
2022/09/08 09:51:21;;;;;;;12.00;2.72;;;;;;;26.76;43.28;100695.66;5103886;28;20470;-48
2022/09/08 09:54:13;;;;;;;7.78;2.17;;;;;;;26.79;43.33;100687.78;5100105;28;20039;-51
2022/09/08 09:57:10;;;;;;;7.88;2.72;;;;;;;26.78;43.35;100699.16;5102826;28;20027;-50
2022/09/08 09:59:55;;;;;;;9.68;2.53;;;;;;;26.77;43.46;100689.53;5093793;28;20490;-50
2022/09/08 10:02:43;;;;;;;12.15;3.03;;;;;;;26.75;43.61;100691.28;5080766;28;20363;-48
2022/09/08 10:05:30;;;;;;;12.55;2.83;;;;;;;26.77;43.58;100693.88;5096412;28;20047;-48
2022/09/08 10:08:36;;;;;;;12.55;3.13;;;;;;;26.78;43.51;100688.63;5080780;28;20050;-48
2022/09/08 10:11:23;;;;;;;8.82;2.60;;;;;;;26.75;43.75;100693.00;5089112;28;20031;-52
2022/09/08 10:14:23;;;;;;;14.80;3.38;;;;;;;26.79;43.66;100685.16;5064574;28;20035;-52
2022/09/08 10:17:01;;;;;;;17.63;3.88;;;;;;;26.77;43.76;100697.41;5090075;28;20125;-52
2022/09/08 10:20:08;;;;;;;17.55;3.15;;;;;;;26.76;43.92;100700.03;5100365;28;20031;-52
2022/09/08 10:22:56;;;;;;;11.82;3.15;;;;;;;26.72;44.00;100696.53;5095716;28;20123;-51
2022/09/08 10:26:03;;;;;;;14.38;3.85;;;;;;;26.65;44.07;100693.06;5075007;28;20043;-52
2022/09/08 10:29:09;;;;;;;12.57;3.63;;;;;;;26.63;44.09;100705.31;5068565;28;20028;-52
2022/09/08 10:31:48;;;;;;;14.32;3.47;;;;;;;26.54;43.71;100687.81;5098834;28;20040;-52
2022/09/08 10:34:31;;;;;;;13.95;3.55;;;;;;;26.58;43.75;100712.34;5100277;28;20039;-52
2022/09/08 10:37:25;;;;;;;13.93;3.55;;;;;;;26.57;44.09;100702.69;5096092;28;20035;-52
2022/09/08 10:39:55;;;;;;;17.27;3.72;;;;;;;26.61;44.23;100709.72;5093919;28;20429;-52
2022/09/08 10:42:30;;;;;;;16.23;5.05;;;;;;;26.61;44.13;100711.47;5096369;28;20108;-50
2022/09/08 10:45:16;;;;;;;;;;;;;;;26.66;43.97;100710.59;5092889;28;20027;-52
2022/09/08 10:48:12;;;;;;;11.65;2.90;;;;;;;26.71;43.85;100701.81;5091809;28;19916;-52
2022/09/08 10:50:50;;;;;;;10.82;2.67;;;;;;;26.66;44.37;100710.59;5092872;28;20080;-52
2022/09/08 10:53:29;;;;;;;21.98;3.80;;;;;;;26.66;44.43;100712.31;5103626;28;20398;-50
2022/09/08 10:56:09;;;;;;;15.57;3.13;;;;;;;26.63;44.35;100715.84;5077947;28;20542;-49
2022/09/08 10:59:15;;;;;;;14.40;3.78;;;;;;;26.71;44.52;100714.97;5098234;28;20035;-53
2022/09/08 11:02:10;;;;;;;14.10;3.38;;;;;;;26.67;44.26;100716.72;5089418;28;20043;-51
2022/09/08 11:05:16;;;;;;;17.50;4.13;;;;;;;26.61;44.56;100711.47;5090647;28;20056;-51
2022/09/08 11:08:12;;;;;;;16.90;3.83;;;;;;;26.64;44.56;100714.97;5072080;28;20391;-52
2022/09/08 11:10:58;;;;;;;;;;;;;;;26.72;44.16;100711.47;5093975;28;20132;-50
2022/09/08 11:13:38;;;;;;;17.25;3.53;;;;;;;26.77;44.32;100712.31;5069105;28;20006;-53
2022/09/08 11:16:26;;;;;;;24.08;4.97;;;;;;;26.76;44.63;100715.81;5094022;28;20405;-52
2022/09/08 11:18:57;;;;;;;21.83;5.30;;;;;;;26.71;44.70;100729.00;5094017;28;20039;-52
2022/09/08 11:21:47;;;;;;;19.15;4.93;;;;;;;26.67;44.73;100708.81;5079230;28;20382;-50
2022/09/08 11:24:26;;;;;;;28.92;5.78;;;;;;;26.76;44.70;100719.34;5090698;28;20039;-53
2022/09/08 11:27:21;;;;;;;19.42;4.57;;;;;;;26.74;44.76;100720.19;5078231;28;20036;-50
2022/09/08 11:30:10;;;;;;;19.83;4.70;;;;;;;26.75;44.82;100714.06;5076580;28;20044;-50
2022/09/08 11:32:53;;;;;;;14.13;4.50;;;;;;;26.81;44.80;100712.31;5089717;28;20027;-51
2022/09/08 11:35:33;;;;;;;16.17;4.35;;;;;;;26.81;44.42;100720.22;5099410;28;20035;-52
2022/09/08 11:38:20;;;;;;;17.95;4.65;;;;;;;26.86;44.44;100719.34;5084925;28;20031;-50
2022/09/08 11:41:17;;;;;;;18.48;4.38;;;;;;;26.83;44.67;100714.97;5091581;28;20556;-48
2022/09/08 11:44:05;;;;;;;21.15;5.22;;;;;;;26.88;44.70;100714.94;5094758;28;20048;-50
2022/09/08 11:46:42;;;;;;;23.77;5.60;;;;;;;26.84;44.73;100722.84;5097174;28;20048;-49
2022/09/08 11:49:11;;;;;;;22.52;5.32;;;;;;;26.79;44.80;100726.34;5081051;28;20023;-51
2022/09/08 11:52:04;;;;;;;21.50;4.78;;;;;;;26.77;44.85;100718.47;5103173;28;20023;-47
2022/09/08 11:54:36;;;;;;;17.13;4.93;;;;;;;26.87;44.46;100721.09;5070411;28;20036;-49
2022/09/08 11:57:26;;;;;;;20.95;5.07;;;;;;;26.86;44.52;100716.69;5082711;28;20031;-52
2022/09/08 12:00:16;;;;;;;22.45;4.93;;;;;;;26.90;44.55;100721.09;5077209;28;20101;-48
2022/09/08 12:03:12;;;;;;;19.33;4.75;;;;;;;26.87;44.41;100726.34;5048823;28;20475;-49
2022/09/08 12:06:08;;;;;;;24.20;5.30;;;;;;;26.82;44.48;100714.06;5078013;28;20082;-47
2022/09/08 12:08:39;;;;;;;;;;;;;;;26.88;44.40;100712.31;5077870;28;20034;-48